createdAt,value
2018-01-15T00:00:13.967Z,0
2018-01-15T00:01:24.021Z,0
2018-01-15T00:02:34.064Z,0
2018-01-15T00:03:43.859Z,0
2018-01-15T00:04:53.921Z,0
2018-01-15T00:06:03.702Z,0
2018-01-15T00:07:13.494Z,0
2018-01-15T00:08:23.536Z,0
2018-01-15T00:09:33.587Z,0
2018-01-15T00:10:43.643Z,0
2018-01-15T00:11:53.426Z,0
2018-01-15T00:13:03.237Z,0
2018-01-15T00:14:14.439Z,0
2018-01-15T00:15:24.498Z,0
2018-01-15T00:16:34.334Z,0
2018-01-15T00:17:44.360Z,0
2018-01-15T00:18:54.433Z,0
2018-01-15T00:20:04.481Z,0
2018-01-15T00:21:14.505Z,0
2018-01-15T00:22:24.591Z,0
2018-01-15T00:23:34.629Z,0
2018-01-15T00:24:44.421Z,0
2018-01-15T00:25:54.191Z,0
2018-01-15T00:27:04.234Z,0
2018-01-15T00:28:14.303Z,0
2018-01-15T00:29:24.100Z,0
2018-01-15T00:30:34.157Z,0
2018-01-15T00:31:43.989Z,0
2018-01-15T00:32:53.791Z,0
2018-01-15T00:34:03.566Z,0
2018-01-15T00:35:13.342Z,0
2018-01-15T00:36:23.386Z,0
2018-01-15T00:37:33.484Z,0
2018-01-15T00:38:43.522Z,0
2018-01-15T00:39:53.554Z,0
2018-01-15T00:41:03.609Z,0
2018-01-15T00:42:13.393Z,0
2018-01-15T00:43:23.224Z,0
2018-01-15T00:44:32.974Z,0
2018-01-15T00:45:42.754Z,0
2018-01-15T00:46:52.803Z,0
2018-01-15T00:48:02.586Z,0
2018-01-15T00:49:12.640Z,0
2018-01-15T00:50:22.690Z,0
2018-01-15T00:51:32.757Z,0
2018-01-15T00:52:43.383Z,0
2018-01-15T00:53:53.420Z,0
2018-01-15T00:55:03.468Z,0
2018-01-15T00:56:13.250Z,0
2018-01-15T00:57:23.299Z,0
2018-01-15T00:58:33.373Z,0
2018-01-15T00:59:43.156Z,0
2018-01-15T01:00:53.204Z,0
2018-01-15T01:02:02.980Z,0
2018-01-15T01:03:12.507Z,0
2018-01-15T01:04:22.548Z,0
2018-01-15T01:05:32.586Z,0
2018-01-15T01:06:42.355Z,0
2018-01-15T01:07:52.151Z,0
2018-01-15T01:09:02.206Z,0
2018-01-15T01:10:12.264Z,0
2018-01-15T01:11:22.309Z,0
2018-01-15T01:12:32.345Z,0
2018-01-15T01:13:41.598Z,0
2018-01-15T01:14:51.384Z,0
2018-01-15T01:16:00.963Z,0
2018-01-15T01:17:10.750Z,0
2018-01-15T01:18:20.589Z,0
2018-01-15T01:19:30.628Z,0
2018-01-15T01:20:40.671Z,0
2018-01-15T01:21:50.465Z,0
2018-01-15T01:23:00.499Z,0
2018-01-15T01:24:10.644Z,0
2018-01-15T01:25:20.682Z,0
2018-01-15T01:26:30.477Z,0
2018-01-15T01:27:40.504Z,0
2018-01-15T01:28:50.592Z,0
2018-01-15T01:30:00.363Z,0
2018-01-15T01:31:10.184Z,0
2018-01-15T01:32:20.243Z,0
2018-01-15T01:33:30.027Z,0
2018-01-15T01:34:40.076Z,0
2018-01-15T01:35:50.167Z,0
2018-01-15T01:36:59.942Z,0
2018-01-15T01:38:10.036Z,0
2018-01-15T01:39:19.833Z,0
2018-01-15T01:40:29.608Z,0
2018-01-15T01:41:39.665Z,0
2018-01-15T01:42:49.731Z,0
2018-01-15T01:43:59.779Z,0
2018-01-15T01:45:09.830Z,0
2018-01-15T01:46:19.874Z,0
2018-01-15T01:47:29.971Z,0
2018-01-15T01:48:40.012Z,0
2018-01-15T01:49:49.797Z,0
2018-01-15T01:50:59.885Z,0
2018-01-15T01:52:09.681Z,0
2018-01-15T01:53:19.718Z,0
2018-01-15T01:54:29.759Z,0
2018-01-15T01:55:39.797Z,0
2018-01-15T01:56:49.844Z,0
2018-01-15T01:57:59.905Z,0
2018-01-15T01:59:10.016Z,0
2018-01-15T02:00:20.065Z,0
2018-01-15T02:01:30.105Z,0
2018-01-15T02:02:39.882Z,0
2018-01-15T02:03:49.935Z,0
2018-01-15T02:05:00.090Z,0
2018-01-15T02:06:10.137Z,0
2018-01-15T02:07:19.915Z,0
2018-01-15T02:08:29.962Z,0
2018-01-15T02:09:39.756Z,0
2018-01-15T02:10:49.794Z,0
2018-01-15T02:11:59.835Z,0
2018-01-15T02:13:09.873Z,0
2018-01-15T02:14:19.919Z,0
2018-01-15T02:15:29.961Z,0
2018-01-15T02:16:39.993Z,0
2018-01-15T02:17:50.035Z,0
2018-01-15T02:19:00.077Z,0
2018-01-15T02:20:10.113Z,0
2018-01-15T02:21:20.855Z,0
2018-01-15T02:22:31.042Z,0
2018-01-15T02:23:40.857Z,0
2018-01-15T02:24:50.902Z,0
2018-01-15T02:26:00.667Z,0
2018-01-15T02:27:10.743Z,0
2018-01-15T02:28:20.836Z,0
2018-01-15T02:29:30.887Z,0
2018-01-15T02:30:40.924Z,0
2018-01-15T02:31:50.709Z,0
2018-01-15T02:33:00.763Z,0
2018-01-15T02:34:10.703Z,0
2018-01-15T02:35:20.748Z,0
2018-01-15T02:36:30.779Z,0
2018-01-15T02:37:40.829Z,0
2018-01-15T02:38:50.935Z,0
2018-01-15T02:40:00.514Z,0
2018-01-15T02:41:10.288Z,0
2018-01-15T02:42:20.334Z,0
2018-01-15T02:43:30.377Z,0
2018-01-15T02:44:40.161Z,0
2018-01-15T02:45:50.267Z,0
2018-01-15T02:47:00.056Z,0
2018-01-15T02:48:10.109Z,0
2018-01-15T02:49:19.638Z,0
2018-01-15T02:50:29.689Z,0
2018-01-15T02:51:39.782Z,0
2018-01-15T02:52:49.848Z,0
2018-01-15T02:54:00.490Z,0
2018-01-15T02:55:10.543Z,0
2018-01-15T02:56:20.314Z,0
2018-01-15T02:57:30.404Z,0
2018-01-15T02:58:39.922Z,0
2018-01-15T02:59:49.970Z,0
2018-01-15T03:01:00.032Z,0
2018-01-15T03:02:10.087Z,0
2018-01-15T03:34:33.892Z,0
2018-01-15T03:35:43.921Z,0
2018-01-15T03:36:53.955Z,0
2018-01-15T03:38:03.995Z,0
2018-01-15T03:39:14.027Z,0
2018-01-15T03:40:24.074Z,0
2018-01-15T03:41:34.152Z,0
2018-01-15T03:42:44.192Z,0
2018-01-15T03:43:55.065Z,0
2018-01-15T03:45:04.932Z,0
2018-01-15T03:46:15.025Z,0
2018-01-15T03:47:25.074Z,0
2018-01-15T03:48:35.124Z,0
2018-01-15T03:49:45.168Z,0
2018-01-15T03:50:55.205Z,0
2018-01-15T03:52:05.292Z,0
2018-01-15T03:53:15.333Z,0
2018-01-15T03:54:25.115Z,0
2018-01-15T03:55:35.158Z,0
2018-01-15T03:56:45.202Z,0
2018-01-15T03:57:55.027Z,0
2018-01-15T03:59:04.819Z,0
2018-01-15T04:00:14.868Z,0
2018-01-15T04:01:24.899Z,0
2018-01-15T04:02:34.937Z,0
2018-01-15T04:03:44.515Z,0
2018-01-15T04:04:54.039Z,0
2018-01-15T04:06:04.144Z,0
2018-01-15T04:07:13.650Z,0
2018-01-15T04:08:23.448Z,0
2018-01-15T04:09:33.541Z,0
2018-01-15T04:10:43.589Z,0
2018-01-15T04:11:53.369Z,0
2018-01-15T04:13:03.404Z,0
2018-01-15T04:14:13.477Z,0
2018-01-15T04:15:24.448Z,0
2018-01-15T04:16:34.240Z,0
2018-01-15T04:17:44.032Z,0
2018-01-15T04:18:54.078Z,0
2018-01-15T04:20:04.117Z,0
2018-01-15T04:21:14.231Z,0
2018-01-15T04:22:24.269Z,0
2018-01-15T04:23:35.823Z,0
2018-01-15T04:24:45.859Z,0
2018-01-15T04:25:55.665Z,0
2018-01-15T04:27:05.709Z,0
2018-01-15T04:28:15.745Z,0
2018-01-15T04:29:25.273Z,0
2018-01-15T04:30:35.060Z,0
2018-01-15T04:31:45.105Z,0
2018-01-15T04:32:55.251Z,0
2018-01-15T04:34:05.041Z,0
2018-01-15T04:35:14.820Z,0
2018-01-15T04:36:24.597Z,0
2018-01-15T04:37:34.641Z,0
2018-01-15T04:38:44.755Z,0
2018-01-15T04:39:54.802Z,0
2018-01-15T04:41:04.350Z,0
2018-01-15T04:42:14.400Z,0
2018-01-15T04:43:24.474Z,0
2018-01-15T04:44:34.309Z,0
2018-01-15T04:45:44.363Z,0
2018-01-15T04:46:54.404Z,0
2018-01-15T04:48:04.461Z,0
2018-01-15T04:49:14.236Z,0
2018-01-15T04:50:24.279Z,0
2018-01-15T04:51:34.316Z,0
2018-01-15T04:52:44.336Z,0
2018-01-15T04:53:54.110Z,0
2018-01-15T04:55:03.632Z,0
2018-01-15T04:56:13.722Z,0
2018-01-15T04:57:23.249Z,0
2018-01-15T04:58:33.288Z,0
2018-01-15T04:59:43.063Z,0
2018-01-15T05:00:53.124Z,0
2018-01-15T05:02:02.917Z,0
2018-01-15T05:03:12.705Z,0
2018-01-15T05:04:22.751Z,0
2018-01-15T05:05:33.512Z,0
2018-01-15T05:06:43.554Z,0
2018-01-15T05:07:53.606Z,0
2018-01-15T05:09:03.646Z,0
2018-01-15T05:10:13.687Z,0
2018-01-15T05:11:23.471Z,0
2018-01-15T05:12:33.261Z,0
2018-01-15T05:13:43.308Z,0
2018-01-15T05:14:52.811Z,0
2018-01-15T05:16:02.872Z,0
2018-01-15T05:17:12.934Z,0
2018-01-15T05:18:22.977Z,0
2018-01-15T05:19:32.764Z,0
2018-01-15T05:20:42.794Z,0
2018-01-15T05:21:52.837Z,0
2018-01-15T05:23:02.874Z,0
2018-01-15T05:24:12.918Z,0
2018-01-15T05:25:22.963Z,0
2018-01-15T05:26:32.482Z,0
2018-01-15T05:27:42.546Z,0
2018-01-15T05:28:52.596Z,0
2018-01-15T05:30:02.638Z,0
2018-01-15T05:31:12.733Z,0
2018-01-15T05:32:22.775Z,0
2018-01-15T05:33:32.582Z,0
2018-01-15T05:34:42.612Z,0
2018-01-15T05:35:52.722Z,0
2018-01-15T05:37:02.750Z,0
2018-01-15T05:38:12.795Z,0
2018-01-15T05:39:22.581Z,0
2018-01-15T05:40:32.366Z,0
2018-01-15T05:41:41.901Z,0
2018-01-15T05:42:51.946Z,0
2018-01-15T05:44:02.047Z,0
2018-01-15T05:45:11.827Z,0
2018-01-15T05:46:21.608Z,0
2018-01-15T05:47:31.649Z,0
2018-01-15T05:48:41.741Z,0
2018-01-15T05:49:51.777Z,0
2018-01-15T05:51:01.811Z,0
2018-01-15T05:52:11.590Z,0
2018-01-15T05:53:21.633Z,0
2018-01-15T05:54:31.731Z,0
2018-01-15T05:55:41.778Z,0
2018-01-15T05:56:52.069Z,0
2018-01-15T05:58:01.870Z,0
2018-01-15T05:59:11.659Z,0
2018-01-15T06:00:21.713Z,0
2018-01-15T06:01:31.759Z,0
2018-01-15T06:02:41.808Z,0
2018-01-15T06:03:51.849Z,0
2018-01-15T06:05:01.889Z,0
2018-01-15T06:06:11.979Z,0
2018-01-15T06:07:22.046Z,0
2018-01-15T06:08:32.078Z,0
2018-01-15T06:09:42.111Z,0
2018-01-15T06:10:51.887Z,0
2018-01-15T06:12:02.004Z,0
2018-01-15T06:13:12.061Z,0
2018-01-15T06:14:22.125Z,0
2018-01-15T06:15:31.897Z,0
2018-01-15T06:16:41.715Z,0
2018-01-15T06:17:51.517Z,0
2018-01-15T06:19:01.562Z,0
2018-01-15T06:20:11.594Z,0
2018-01-15T06:21:21.635Z,0
2018-01-15T06:22:31.418Z,0
2018-01-15T06:23:41.470Z,0
2018-01-15T06:24:51.554Z,0
2018-01-15T06:26:01.593Z,0
2018-01-15T06:27:11.634Z,0
2018-01-15T06:28:21.232Z,0
2018-01-15T06:29:31.266Z,0
2018-01-15T06:30:41.304Z,0
2018-01-15T06:31:51.347Z,0
2018-01-15T06:33:01.409Z,0
2018-01-15T06:34:11.471Z,0
2018-01-15T06:35:21.507Z,0
2018-01-15T06:36:31.540Z,0
2018-01-15T06:37:41.315Z,0
2018-01-15T06:38:51.356Z,0
2018-01-15T06:40:01.420Z,5
2018-01-15T06:41:11.215Z,5
2018-01-15T06:42:21.277Z,5
2018-01-15T06:43:31.326Z,5
2018-01-15T06:44:41.373Z,5
2018-01-15T06:45:51.153Z,5
2018-01-15T06:47:01.252Z,5
2018-01-15T06:48:11.278Z,5
2018-01-15T06:49:21.323Z,10
2018-01-15T06:50:31.090Z,10
2018-01-15T06:51:40.871Z,10
2018-01-15T06:52:50.713Z,10
2018-01-15T06:54:00.788Z,10
2018-01-15T06:55:10.840Z,15
2018-01-15T06:56:20.878Z,15
2018-01-15T06:57:30.924Z,15
2018-01-15T06:58:40.777Z,15
2018-01-15T06:59:50.554Z,15
2018-01-15T07:01:00.587Z,20
2018-01-15T07:02:10.628Z,20
2018-01-15T07:03:20.679Z,20
2018-01-15T07:04:30.777Z,20
2018-01-15T07:05:40.825Z,20
2018-01-15T07:06:50.859Z,25
2018-01-15T07:08:00.662Z,25
2018-01-15T07:09:10.715Z,25
2018-01-15T07:10:20.546Z,25
2018-01-15T07:11:30.336Z,30
2018-01-15T07:12:40.375Z,30
2018-01-15T07:13:50.423Z,30
2018-01-15T07:15:00.468Z,30
2018-01-15T07:16:10.559Z,35
2018-01-15T07:17:20.679Z,35
2018-01-15T07:18:30.951Z,35
2018-01-15T07:19:40.734Z,35
2018-01-15T07:20:50.768Z,35
2018-01-15T07:22:00.859Z,40
2018-01-15T07:23:10.953Z,40
2018-01-15T07:24:21.001Z,40
2018-01-15T07:25:30.778Z,40
2018-01-15T07:26:40.557Z,40
2018-01-15T07:27:50.593Z,45
2018-01-15T07:29:00.628Z,45
2018-01-15T07:30:10.417Z,40
2018-01-15T07:31:20.466Z,45
2018-01-15T07:32:30.225Z,45
2018-01-15T07:33:39.547Z,45
2018-01-15T07:34:49.358Z,50
2018-01-15T07:35:59.134Z,50
2018-01-15T07:37:09.176Z,50
2018-01-15T07:38:20.107Z,50
2018-01-15T07:39:30.201Z,50
2018-01-15T07:40:40.247Z,50
2018-01-15T07:41:50.274Z,50
2018-01-15T07:43:00.320Z,50
2018-01-15T07:44:10.115Z,50
2018-01-15T07:45:20.165Z,50
2018-01-15T07:46:29.990Z,55
2018-01-15T07:47:41.408Z,55
2018-01-15T07:48:51.199Z,60
2018-01-15T07:50:01.234Z,55
2018-01-15T07:51:11.030Z,55
2018-01-15T07:52:21.078Z,55
2018-01-15T07:53:30.865Z,60
2018-01-15T07:54:40.929Z,60
2018-01-15T07:55:50.725Z,60
2018-01-15T07:57:00.506Z,60
2018-01-15T07:58:10.967Z,60
2018-01-15T07:59:21.325Z,60
2018-01-15T08:00:31.393Z,60
2018-01-15T08:01:41.190Z,60
2018-01-15T08:02:51.307Z,60
2018-01-15T08:04:01.361Z,60
2018-01-15T08:05:11.424Z,65
2018-01-15T08:06:21.198Z,60
2018-01-15T08:07:31.222Z,65
2018-01-15T08:08:41.284Z,60
2018-01-15T08:09:52.201Z,65
2018-01-15T08:11:01.996Z,65
2018-01-15T08:12:12.034Z,65
2018-01-15T08:13:22.024Z,60
2018-01-15T08:14:31.895Z,60
2018-01-15T08:15:42.109Z,60
2018-01-15T08:16:51.896Z,60
2018-01-15T08:18:01.427Z,60
2018-01-15T08:19:11.486Z,60
2018-01-15T08:20:21.556Z,65
2018-01-15T08:21:31.613Z,65
2018-01-15T08:22:41.672Z,70
2018-01-15T08:23:51.737Z,70
2018-01-15T08:25:01.792Z,70
2018-01-15T08:26:11.564Z,85
2018-01-15T08:27:21.685Z,80
2018-01-15T08:28:31.490Z,85
2018-01-15T08:29:41.545Z,85
2018-01-15T08:30:51.651Z,85
2018-01-15T08:32:01.619Z,85
2018-01-15T08:33:11.459Z,90
2018-01-15T08:34:21.248Z,95
2018-01-15T08:35:31.288Z,115
2018-01-15T08:36:41.351Z,100
2018-01-15T08:37:51.146Z,110
2018-01-15T08:39:01.206Z,95
2018-01-15T08:40:11.054Z,95
2018-01-15T08:41:20.870Z,90
2018-01-15T08:42:30.943Z,95
2018-01-15T08:43:40.996Z,125
2018-01-15T08:44:50.780Z,125
2018-01-15T08:46:00.952Z,105
2018-01-15T08:47:10.473Z,115
2018-01-15T08:48:20.510Z,120
2018-01-15T08:49:30.551Z,115
2018-01-15T08:50:40.592Z,120
2018-01-15T08:51:50.650Z,130
2018-01-15T08:53:00.690Z,125
2018-01-15T08:54:10.752Z,125
2018-01-15T08:55:20.815Z,125
2018-01-15T08:56:30.866Z,130
2018-01-15T08:57:40.913Z,130
2018-01-15T08:58:50.706Z,125
2018-01-15T09:00:00.764Z,130
2018-01-15T09:01:11.050Z,130
2018-01-15T09:02:21.097Z,130
2018-01-15T09:03:31.138Z,100
2018-01-15T09:04:41.186Z,130
2018-01-15T09:05:51.885Z,135
2018-01-15T09:07:01.997Z,135
2018-01-15T09:08:11.548Z,135
2018-01-15T09:09:21.614Z,130
2018-01-15T09:10:31.652Z,135
2018-01-15T09:11:41.704Z,135
2018-01-15T09:12:51.578Z,140
2018-01-15T09:14:01.377Z,130
2018-01-15T09:15:12.513Z,135
2018-01-15T09:16:22.564Z,135
2018-01-15T09:17:32.616Z,140
2018-01-15T09:18:42.722Z,120
2018-01-15T09:19:52.248Z,135
2018-01-15T09:21:02.038Z,135
2018-01-15T09:22:12.070Z,145
2018-01-15T09:23:22.106Z,145
2018-01-15T09:24:32.137Z,140
2018-01-15T09:25:42.479Z,140
2018-01-15T09:26:52.286Z,145
2018-01-15T09:28:02.117Z,145
2018-01-15T09:29:11.889Z,155
2018-01-15T09:30:21.988Z,115
2018-01-15T09:31:32.034Z,150
2018-01-15T09:32:42.091Z,150
2018-01-15T09:33:51.880Z,145
2018-01-15T09:35:02.985Z,160
2018-01-15T09:36:13.895Z,165
2018-01-15T09:37:23.947Z,155
2018-01-15T09:38:34.006Z,160
2018-01-15T09:39:44.093Z,160
2018-01-15T09:40:53.643Z,160
2018-01-15T09:42:03.489Z,125
2018-01-15T09:43:13.617Z,145
2018-01-15T09:44:23.104Z,165
2018-01-15T09:45:32.932Z,160
2018-01-15T09:46:43.011Z,120
2018-01-15T09:47:52.824Z,165
2018-01-15T09:49:02.870Z,175
2018-01-15T09:50:12.864Z,165
2018-01-15T09:51:22.634Z,165
2018-01-15T09:52:32.682Z,135
2018-01-15T09:53:42.741Z,155
2018-01-15T09:54:52.792Z,130
2018-01-15T09:56:02.834Z,175
2018-01-15T09:57:13.307Z,130
2018-01-15T09:58:23.097Z,165
2018-01-15T09:59:33.226Z,170
2018-01-15T10:00:43.289Z,175
2018-01-15T10:01:53.959Z,130
2018-01-15T10:03:04.022Z,145
2018-01-15T10:04:14.084Z,170
2018-01-15T10:05:23.920Z,165
2018-01-15T10:06:34.677Z,140
2018-01-15T10:07:44.726Z,165
2018-01-15T10:08:54.791Z,165
2018-01-15T10:10:04.855Z,165
2018-01-15T10:11:14.954Z,125
2018-01-15T10:12:25.537Z,155
2018-01-15T10:13:34.810Z,125
2018-01-15T10:14:45.396Z,120
2018-01-15T10:15:55.469Z,115
2018-01-15T10:17:05.584Z,120
2018-01-15T10:18:15.641Z,115
2018-01-15T10:19:25.748Z,115
2018-01-15T10:20:35.814Z,110
2018-01-15T10:21:45.887Z,125
2018-01-15T10:22:55.400Z,135
2018-01-15T10:24:06.700Z,130
2018-01-15T10:25:18.099Z,120
2018-01-15T10:26:28.131Z,140
2018-01-15T10:27:38.214Z,135
2018-01-15T10:28:48.099Z,125
2018-01-15T10:29:57.903Z,120
2018-01-15T10:31:07.954Z,125
2018-01-15T10:32:18.034Z,140
2018-01-15T10:33:28.102Z,140
2018-01-15T10:34:37.884Z,135
2018-01-15T10:35:47.687Z,170
2018-01-15T10:36:58.439Z,135
2018-01-15T10:38:09.683Z,160
2018-01-15T10:39:19.827Z,145
2018-01-15T10:40:29.677Z,140
2018-01-15T10:41:39.744Z,125
2018-01-15T10:42:50.851Z,130
2018-01-15T10:44:00.896Z,145
2018-01-15T10:45:10.946Z,135
2018-01-15T10:46:21.639Z,125
2018-01-15T10:47:31.379Z,120
2018-01-15T10:48:41.363Z,135
2018-01-15T10:49:51.460Z,135
2018-01-15T10:51:01.461Z,190
2018-01-15T10:52:11.458Z,135
2018-01-15T10:53:21.464Z,185
2018-01-15T10:54:31.457Z,125
2018-01-15T10:55:41.660Z,120
2018-01-15T10:56:51.651Z,135
2018-01-15T10:58:01.743Z,120
2018-01-15T10:59:11.745Z,140
2018-01-15T11:00:22.645Z,165
2018-01-15T11:01:32.646Z,190
2018-01-15T11:02:42.670Z,205
2018-01-15T11:03:52.733Z,195
2018-01-15T11:05:02.727Z,190
2018-01-15T11:06:12.729Z,130
2018-01-15T11:07:22.730Z,175
2018-01-15T11:08:32.467Z,195
2018-01-15T11:09:42.555Z,195
2018-01-15T11:10:52.564Z,125
2018-01-15T11:12:02.111Z,145
2018-01-15T11:13:11.847Z,190
2018-01-15T11:14:21.858Z,190
2018-01-15T11:15:31.597Z,120
2018-01-15T11:16:41.465Z,170
2018-01-15T11:17:51.177Z,170
2018-01-15T11:19:01.184Z,215
2018-01-15T11:20:11.182Z,155
2018-01-15T11:21:21.420Z,200
2018-01-15T11:22:31.453Z,200
2018-01-15T11:23:41.507Z,200
2018-01-15T11:24:51.494Z,185
2018-01-15T11:26:01.493Z,180
2018-01-15T11:27:12.587Z,200
2018-01-15T11:28:22.310Z,200
2018-01-15T11:29:32.886Z,130
2018-01-15T11:30:42.627Z,145
2018-01-15T11:31:52.590Z,155
2018-01-15T11:33:02.593Z,195
2018-01-15T11:34:12.322Z,175
2018-01-15T11:35:22.327Z,165
2018-01-15T11:36:32.339Z,140
2018-01-15T11:37:42.350Z,200
2018-01-15T11:38:52.366Z,140
2018-01-15T11:40:02.366Z,180
2018-01-15T11:41:12.355Z,190
2018-01-15T11:42:22.337Z,190
2018-01-15T11:43:32.358Z,185
2018-01-15T11:44:42.632Z,185
2018-01-15T11:45:53.376Z,185
2018-01-15T11:47:03.379Z,195
2018-01-15T11:48:13.177Z,190
2018-01-15T11:49:23.191Z,185
2018-01-15T11:50:33.318Z,130
2018-01-15T11:51:43.346Z,190
2018-01-15T11:52:53.332Z,185
2018-01-15T11:54:03.331Z,195
2018-01-15T11:55:13.320Z,200
2018-01-15T11:56:23.322Z,195
2018-01-15T11:57:33.303Z,130
2018-01-15T11:58:43.021Z,185
2018-01-15T11:59:53.010Z,125
2018-01-15T12:01:02.997Z,125
2018-01-15T12:02:12.466Z,110
2018-01-15T12:03:22.203Z,115
2018-01-15T12:04:31.934Z,130
2018-01-15T12:05:41.691Z,115
2018-01-15T12:06:51.711Z,110
2018-01-15T12:08:01.749Z,115
2018-01-15T12:09:11.496Z,115
2018-01-15T12:10:21.234Z,105
2018-01-15T12:11:30.967Z,110
2018-01-15T12:12:40.686Z,110
2018-01-15T12:13:50.797Z,120
2018-01-15T12:15:00.525Z,110
2018-01-15T12:16:10.510Z,115
2018-01-15T12:17:20.563Z,115
2018-01-15T12:18:30.619Z,110
2018-01-15T12:19:40.758Z,105
2018-01-15T12:20:50.800Z,100
2018-01-15T12:22:00.836Z,95
2018-01-15T12:23:10.856Z,90
2018-01-15T12:24:20.862Z,95
2018-01-15T12:25:30.887Z,95
2018-01-15T12:26:40.895Z,90
2018-01-15T12:27:50.900Z,85
2018-01-15T12:29:00.906Z,85
2018-01-15T12:30:10.395Z,80
2018-01-15T12:31:20.199Z,80
2018-01-15T12:32:30.215Z,70
2018-01-15T12:33:40.207Z,70
2018-01-15T12:34:50.208Z,60
2018-01-15T12:35:59.971Z,60
2018-01-15T12:37:09.723Z,65
2018-01-15T12:38:19.694Z,60
2018-01-15T12:39:29.677Z,60
2018-01-15T12:40:39.660Z,55
2018-01-15T12:41:49.661Z,60
2018-01-15T12:42:59.397Z,65
2018-01-15T12:44:09.160Z,55
2018-01-15T12:45:18.959Z,40
2018-01-15T12:46:28.946Z,40
2018-01-15T12:47:38.724Z,45
2018-01-15T12:48:48.763Z,55
2018-01-15T12:49:58.764Z,50
2018-01-15T12:51:08.764Z,55
2018-01-15T12:52:18.756Z,50
2018-01-15T12:53:28.484Z,50
2018-01-15T12:54:38.493Z,45
2018-01-15T12:55:48.500Z,50
2018-01-15T12:56:58.279Z,40
2018-01-15T12:58:08.331Z,40
2018-01-15T12:59:18.144Z,50
2018-01-15T13:00:28.285Z,55
2018-01-15T13:01:38.100Z,55
2018-01-15T13:02:48.176Z,50
2018-01-15T13:03:58.218Z,95
2018-01-15T13:05:08.286Z,45
2018-01-15T13:06:18.390Z,40
2018-01-15T13:07:28.463Z,40
2018-01-15T13:08:38.534Z,40
2018-01-15T13:09:48.600Z,35
2018-01-15T13:10:58.379Z,40
2018-01-15T13:12:08.481Z,45
2018-01-15T13:13:18.282Z,40
2018-01-15T13:14:28.358Z,40
2018-01-15T13:15:37.923Z,30
2018-01-15T13:16:47.988Z,30
2018-01-15T13:17:58.028Z,25
2018-01-15T13:19:07.833Z,20
2018-01-15T13:20:18.652Z,25
2018-01-15T13:21:28.474Z,25
2018-01-15T13:22:38.555Z,25
2018-01-15T13:23:48.691Z,25
2018-01-15T13:24:58.485Z,25
2018-01-15T13:26:08.537Z,25
2018-01-15T13:27:18.325Z,25
2018-01-15T13:28:28.444Z,25
2018-01-15T13:29:38.493Z,30
2018-01-15T13:30:48.562Z,30
2018-01-15T13:31:58.356Z,30
2018-01-15T13:33:08.408Z,30
2018-01-15T13:34:18.469Z,30
2018-01-15T13:35:28.532Z,25
2018-01-15T13:36:38.307Z,25
2018-01-15T13:37:48.432Z,20
2018-01-15T13:38:58.236Z,20
2018-01-15T13:40:08.510Z,20
2018-01-15T13:41:18.343Z,20
2018-01-15T13:42:28.598Z,20
2018-01-15T13:43:38.644Z,20
2018-01-15T13:44:48.688Z,20
2018-01-15T13:45:58.745Z,20
2018-01-15T13:47:08.861Z,20
2018-01-15T13:48:18.988Z,20
2018-01-15T13:49:29.040Z,20
2018-01-15T13:50:39.094Z,20
2018-01-15T13:51:49.144Z,15
2018-01-15T13:52:59.001Z,15
2018-01-15T13:54:09.066Z,15
2018-01-15T13:55:19.240Z,15
2018-01-15T13:56:29.031Z,15
2018-01-15T13:57:39.085Z,15
2018-01-15T13:58:48.906Z,15
2018-01-15T13:59:58.703Z,15
2018-01-15T14:01:08.777Z,10
2018-01-15T14:02:19.733Z,15
2018-01-15T14:03:29.782Z,10
2018-01-15T14:04:39.853Z,10
2018-01-15T14:05:49.934Z,10
2018-01-15T14:07:00.001Z,10
2018-01-15T14:08:10.065Z,10
2018-01-15T14:09:19.601Z,10
2018-01-15T14:10:29.762Z,10
2018-01-15T14:11:39.891Z,10
2018-01-15T14:12:49.683Z,10
2018-01-15T14:13:59.496Z,10
2018-01-15T14:15:09.578Z,10
2018-01-15T14:16:19.674Z,10
2018-01-15T14:17:29.736Z,10
2018-01-15T14:18:39.796Z,10
2018-01-15T14:19:49.859Z,5
2018-01-15T14:21:01.140Z,5
2018-01-15T14:22:10.942Z,5
2018-01-15T14:23:21.013Z,5
2018-01-15T14:24:31.086Z,5
2018-01-15T14:25:41.152Z,5
2018-01-15T14:26:50.960Z,5
2018-01-15T14:28:00.994Z,5
2018-01-15T14:29:10.817Z,5
2018-01-15T14:30:20.605Z,5
2018-01-15T14:31:30.662Z,5
2018-01-15T14:32:40.720Z,5
2018-01-15T14:33:50.582Z,5
2018-01-15T14:35:00.645Z,5
2018-01-15T14:36:10.729Z,5
2018-01-15T14:37:20.582Z,5
2018-01-15T14:38:30.726Z,5
2018-01-15T14:39:40.868Z,5
2018-01-15T14:40:50.917Z,5
2018-01-15T14:42:01.012Z,5
2018-01-15T14:43:10.798Z,5
2018-01-15T14:44:20.859Z,5
2018-01-15T14:45:30.664Z,5
2018-01-15T14:46:40.754Z,5
2018-01-15T14:47:50.846Z,5
2018-01-15T14:49:00.908Z,0
2018-01-15T14:50:10.969Z,0
2018-01-15T14:51:20.754Z,0
2018-01-15T14:52:30.809Z,0
2018-01-15T14:53:41.743Z,0
2018-01-15T14:54:51.805Z,0
2018-01-15T14:56:01.872Z,0
2018-01-15T14:57:12.004Z,0
2018-01-15T14:58:22.071Z,0
2018-01-15T14:59:32.121Z,0
2018-01-15T15:00:42.164Z,0
2018-01-15T15:01:52.213Z,0
2018-01-15T15:03:02.054Z,0
2018-01-15T15:04:11.601Z,0
2018-01-15T15:05:21.655Z,0
2018-01-15T15:13:01.801Z,0
2018-01-15T15:14:11.825Z,0
2018-01-15T15:15:21.913Z,0
2018-01-15T15:16:31.708Z,0
2018-01-15T15:17:41.764Z,0
2018-01-15T15:18:52.093Z,0
2018-01-15T15:20:02.137Z,0
2018-01-15T15:21:12.197Z,0
2018-01-15T15:22:22.241Z,0
2018-01-15T15:23:32.019Z,0
2018-01-15T15:24:42.113Z,0
2018-01-15T15:25:52.143Z,0
2018-01-15T15:27:02.201Z,0
2018-01-15T15:28:12.270Z,0
2018-01-15T15:29:22.300Z,0
2018-01-15T15:30:32.060Z,0
2018-01-15T15:31:41.327Z,0
2018-01-15T15:32:51.399Z,0
2018-01-15T15:34:01.443Z,0
2018-01-15T15:35:11.491Z,0
2018-01-15T15:36:21.528Z,0
2018-01-15T15:37:31.319Z,0
2018-01-15T15:38:41.361Z,0
2018-01-15T15:39:51.446Z,0
2018-01-15T15:41:01.478Z,0
2018-01-15T15:42:11.508Z,0
2018-01-15T15:43:21.564Z,0
2018-01-15T15:44:31.359Z,0
2018-01-15T15:45:41.137Z,0
2018-01-15T15:46:51.203Z,0
2018-01-15T15:48:01.072Z,0
2018-01-15T15:49:11.744Z,0
2018-01-15T15:50:21.805Z,0
2018-01-15T15:51:31.588Z,0
2018-01-15T15:52:41.652Z,0
2018-01-15T15:53:51.497Z,0
2018-01-15T15:55:01.582Z,0
2018-01-15T15:56:11.620Z,0
2018-01-15T15:57:21.679Z,0
2018-01-15T15:58:31.836Z,0
2018-01-15T15:59:41.946Z,0
2018-01-15T16:00:52.019Z,0
2018-01-15T16:02:01.835Z,0
2018-01-15T16:03:12.124Z,0
2018-01-15T16:04:21.700Z,0
2018-01-15T16:05:31.546Z,0
2018-01-15T16:06:41.348Z,0
2018-01-15T16:07:51.727Z,0
2018-01-15T16:09:01.862Z,0
2018-01-15T16:10:12.039Z,0
2018-01-15T16:11:22.147Z,0
2018-01-15T16:12:32.209Z,0
2018-01-15T16:13:43.064Z,0
2018-01-15T16:14:53.550Z,0
2018-01-15T16:16:03.669Z,0
2018-01-15T16:17:13.736Z,0
2018-01-15T16:18:23.792Z,0
2018-01-15T16:19:33.609Z,0
2018-01-15T16:20:43.674Z,0
2018-01-15T16:21:53.744Z,0
2018-01-15T16:23:03.540Z,0
2018-01-15T16:24:13.590Z,0
2018-01-15T16:25:23.651Z,0
2018-01-15T16:26:33.701Z,0
2018-01-15T16:27:43.526Z,0
2018-01-15T16:28:53.060Z,0
2018-01-15T16:30:02.859Z,0
2018-01-15T16:31:12.912Z,0
2018-01-15T16:32:22.951Z,0
2018-01-15T16:33:33.045Z,0
2018-01-15T16:34:43.127Z,0
2018-01-15T16:35:53.189Z,0
2018-01-15T16:37:02.998Z,0
2018-01-15T16:38:13.110Z,0
2018-01-15T16:39:22.925Z,0
2018-01-15T16:40:33.081Z,0
2018-01-15T16:41:42.885Z,0
2018-01-15T16:42:52.482Z,0
2018-01-15T16:44:02.580Z,0
2018-01-15T16:45:12.647Z,0
2018-01-15T16:46:22.745Z,0
2018-01-15T16:47:32.840Z,0
2018-01-15T16:48:42.374Z,0
2018-01-15T16:49:52.436Z,0
2018-01-15T16:51:02.482Z,0
2018-01-15T16:52:12.581Z,0
2018-01-15T16:53:22.372Z,0
2018-01-15T16:54:31.912Z,0
2018-01-15T16:55:41.995Z,0
2018-01-15T16:56:51.802Z,0
2018-01-15T16:58:01.954Z,0
2018-01-15T16:59:12.067Z,0
2018-01-15T17:00:21.875Z,0
2018-01-15T17:01:31.935Z,0
2018-01-15T17:02:41.488Z,0
2018-01-15T17:03:51.362Z,0
2018-01-15T17:05:01.463Z,0
2018-01-15T17:06:11.562Z,0
2018-01-15T17:07:21.627Z,0
2018-01-15T17:08:31.444Z,0
2018-01-15T17:09:41.489Z,0
2018-01-15T17:10:51.541Z,0
2018-01-15T17:12:01.568Z,0
2018-01-15T17:13:11.629Z,0
2018-01-15T17:14:21.692Z,0
2018-01-15T17:15:31.869Z,0
2018-01-15T17:16:41.941Z,0
2018-01-15T17:17:52.016Z,0
2018-01-15T17:19:02.092Z,0
2018-01-15T17:20:11.935Z,0
2018-01-15T17:21:22.060Z,0
2018-01-15T17:22:31.849Z,0
2018-01-15T17:23:41.119Z,0
2018-01-15T17:24:50.961Z,0
2018-01-15T17:26:01.041Z,0
2018-01-15T17:27:11.152Z,0